METAR Data
IDs: Format: Raw Decoded Include TAF

Data at: 1342 UTC 14 Dec 2019

K4M9 141335Z AUTO 00000KT M1/4SM FG OVC002 02/02 A2978 RMK AO2 PWINO
K4M9 141315Z AUTO 26004KT M1/4SM FG OVC001 02/02 A2978 RMK AO2 PWINO
K4M9 141255Z AUTO 25004KT M1/4SM FG OVC001 02/02 A2977 RMK AO2 PWINO
K4M9 141235Z AUTO 00000KT M1/4SM FG OVC002 02/02 A2976 RMK AO2 PWINO
K4M9 141215Z AUTO 00000KT 1/2SM FG OVC002 02/02 A2976 RMK AO2 PWINO
K4M9 141155Z AUTO 00000KT 1/2SM FG OVC002 02/02 A2976 RMK AO2 PWINO
K4M9 141135Z AUTO 12004KT 1/4SM FG OVC002 02/02 A2974 RMK AO2 PWINO
K4M9 141115Z AUTO 00000KT 1/4SM FG OVC002 01/01 A2974 RMK AO2 PWINO
K4M9 141055Z AUTO 08003KT 1/4SM FG OVC002 01/01 A2976 RMK AO2 PWINO
K4M9 141035Z AUTO 30004KT 1/4SM FG OVC002 01/01 A2977 RMK AO2 PWINO
K4M9 141015Z AUTO 14005KT 1/4SM FG OVC002 01/01 A2975 RMK AO2 PWINO
K4M9 140955Z AUTO 00000KT 1/4SM FG OVC002 00/00 A2976 RMK AO2 PWINO
K4M9 140935Z AUTO 00000KT M1/4SM FG OVC002 00/00 A2977 RMK AO2 PWINO
K4M9 140915Z AUTO 00000KT M1/4SM FG OVC002 00/00 A2977 RMK AO2 PWINO
K4M9 140855Z AUTO 00000KT M1/4SM FZFG OVC002 M00/00 A2977 RMK AO2 VIS M1/4V5 PWINO
K4M9 140835Z AUTO 00000KT M1/4SM FZFG OVC002 M00/00 A2978 RMK AO2 PWINO
K4M9 140815Z AUTO 00000KT M1/4SM FG OVC002 00/00 A2979 RMK AO2 PWINO
K4M9 140755Z AUTO 27005KT 1/4SM FZFG OVC002 M00/M00 A2980 RMK AO2 PWINO
K4M9 140735Z AUTO 00000KT M1/4SM FZFG OVC002 M00/00 A2977 RMK AO2 PWINO
K4M9 140715Z AUTO 00000KT 1/4SM FZFG OVC002 M00/M00 A2978 RMK AO2 PWINO
K4M9 140655Z AUTO 00000KT M1/4SM FZFG OVC002 M00/M00 A2979 RMK AO2 PWINO
K4M9 140635Z AUTO 26003KT M1/4SM FZFG OVC001 M00/M00 A2981 RMK AO2 PWINO
K4M9 140615Z AUTO 00000KT 1/4SM FZFG OVC001 M00/M00 A2981 RMK AO2 PWINO
K4M9 140555Z AUTO 00000KT 3/4SM BR OVC001 00/00 A2982 RMK AO2 PWINO
K4M9 140535Z AUTO 11003KT 1/4SM FZFG OVC001 M00/M00 A2981 RMK AO2 PWINO
K4M9 140515Z AUTO 00000KT 1/4SM FG OVC001 00/00 A2983 RMK AO2 PWINO
K4M9 140455Z AUTO 00000KT 1/4SM FG BKN001 00/00 A2984 RMK AO2 PWINO
K4M9 140435Z AUTO 00000KT 1/4SM FG OVC001 01/01 A2985 RMK AO2 PWINO
K4M9 140415Z AUTO 28004KT 1/4SM FG BKN001 00/00 A2985 RMK AO2 PWINO
K4M9 140355Z AUTO 27005KT 1/4SM FG BKN001 00/00 A2985 RMK AO2 PWINO
K4M9 140335Z AUTO 00000KT M1/4SM FG VV000 01/01 A2984 RMK AO2 PWINO
K4M9 140315Z AUTO 00000KT 1/4SM FG VV002 01/01 A2984 RMK AO2 PWINO
K4M9 140255Z AUTO 00000KT 1/4SM FG VV002 02/02 A2984 RMK AO2 PWINO
K4M9 140235Z AUTO 00000KT M1/4SM FG VV000 02/02 A2984 RMK AO2 PWINO
K4M9 140215Z AUTO 00000KT 1/2SM BR VV005 03/03 A2984 RMK AO2 PWINO
K4M9 140155Z AUTO 00000KT 2 1/2SM BR CLR 03/03 A2984 RMK AO2 VIS 1 1/4V5 PWINO
K4M9 140135Z AUTO 00000KT 9SM CLR 04/04 A2985 RMK AO2 PWINO
K4M9 140115Z AUTO 29003KT 9SM CLR 04/04 A2985 RMK AO2 PWINO
K4M9 140055Z AUTO 00000KT 10SM CLR 04/04 A2985 RMK AO2 PWINO
K4M9 140035Z AUTO 00000KT 5SM BR CLR 05/05 A2986 RMK AO2 PWINO
K4M9 140015Z AUTO 00000KT 10SM CLR 05/05 A2986 RMK AO2 PWINO
K4M9 132355Z AUTO 00000KT 10SM CLR 06/06 A2985 RMK AO2 PWINO
K4M9 132335Z AUTO 00000KT 9SM FEW017 BKN055 06/06 A2986 RMK AO2 PWINO
K4M9 132315Z AUTO 00000KT 6SM BR FEW017 OVC060 06/06 A2986 RMK AO2 PWINO
K4M9 132255Z AUTO 00000KT 3SM BR FEW016 BKN060 07/06 A2986 RMK AO2 PWINO
K4M9 132235Z AUTO 00000KT 1 1/4SM BR BKN016 07/06 A2987 RMK AO2 PWINO
K4M9 132215Z AUTO 00000KT 2 1/2SM BR FEW016 08/06 A2987 RMK AO2 PWINO
K4M9 132155Z AUTO 00000KT 4SM BR CLR 08/06 A2986 RMK AO2 PWINO
K4M9 132135Z AUTO 00000KT 7SM FEW014 08/06 A2986 RMK AO2 PWINO
K4M9 132115Z AUTO 00000KT 8SM BKN014 08/06 A2986 RMK AO2 PWINO
K4M9 132055Z AUTO 25003KT 10SM BKN013 08/06 A2986 RMK AO2 PWINO
K4M9 132035Z AUTO 00000KT 5SM BR BKN013 08/06 A2986 RMK AO2 PWINO
K4M9 132015Z AUTO 00000KT 4SM BR BKN013 08/06 A2986 RMK AO2 PWINO
K4M9 131955Z AUTO 22003KT 10SM BKN015 BKN060 08/07 A2987 RMK AO2 PWINO
K4M9 131935Z AUTO 25004KT 10SM OVC014 08/07 A2988 RMK AO2 PWINO
K4M9 131915Z AUTO 25005KT 10SM OVC013 08/07 A2989 RMK AO2 PWINO
K4M9 131855Z AUTO 23005KT 10SM OVC012 08/07 A2990 RMK AO2 PWINO
K4M9 131835Z AUTO 23005KT 10SM OVC011 07/07 A2991 RMK AO2 PWINO
K4M9 131815Z AUTO 24006KT 10SM OVC010 07/07 A2993 RMK AO2 PWINO
K4M9 131755Z AUTO 21006KT 10SM OVC009 07/07 A2994 RMK AO2 PWINO
K4M9 131735Z AUTO 19006KT 10SM OVC008 07/07 A2995 RMK AO2 PWINO
K4M9 131715Z AUTO 20004KT 4SM BR OVC007 07/07 A2996 RMK AO2 PWINO
K4M9 131635Z AUTO 18004KT 9SM OVC008 07/07 A2998 RMK AO2 PWINO
K4M9 131615Z AUTO 19005KT 6SM BR BKN007 07/07 A2999 RMK AO2 PWINO
K4M9 131555Z AUTO 20004KT 6SM BR OVC006 07/07 A3000 RMK AO2 PWINO
K4M9 131535Z AUTO 18006KT 9SM BKN006 07/07 A3000 RMK AO2 PWINO
K4M9 131515Z AUTO 18007KT 6SM BR BKN005 06/06 A3001 RMK AO2 PWINO
K4M9 131455Z AUTO 19007KT 6SM BR OVC005 06/06 A3001 RMK AO2 PWINO
K4M9 131435Z AUTO 20005KT 5SM BR OVC004 06/06 A3001 RMK AO2 PWINO
K4M9 131415Z AUTO 22005KT 4SM BR OVC004 05/05 A3001 RMK AO2 PWINO
K4M9 131355Z AUTO 21007KT 5SM BR OVC004 05/05 A3002 RMK AO2 PWINO
K4M9 131335Z AUTO 20004KT 7SM OVC003 05/05 A3001 RMK AO2 PWINO
K4M9 131315Z AUTO 16004KT 2SM BR OVC002 05/05 A3002 RMK AO2 VIS 1 1/2V5 PWINO
K4M9 131255Z AUTO 17006KT 1SM BR OVC002 05/05 A3002 RMK AO2 PWINO
K4M9 131235Z AUTO 18005KT 10SM OVC004 04/04 A3001 RMK AO2 PWINO
K4M9 131215Z AUTO 17004KT 10SM OVC007 03/03 A3002 RMK AO2 PWINO
K4M9 131155Z AUTO 15004KT 10SM BKN008 BKN085 03/03 A3002 RMK AO2 PWINO
K4M9 131135Z AUTO 15004KT 10SM FEW007 02/02 A3002 RMK AO2 PWINO
K4M9 131115Z AUTO 10005KT 10SM CLR 02/01 A3002 RMK AO2 PWINO
K4M9 131055Z AUTO 04003KT 10SM CLR 02/01 A3003 RMK AO2 PWINO
K4M9 131035Z AUTO 00000KT 10SM CLR 02/01 A3004 RMK AO2 PWINO
K4M9 131015Z AUTO 00000KT 10SM FEW095 02/00 A3005 RMK AO2 PWINO
K4M9 130955Z AUTO 00000KT 10SM BKN090 02/01 A3005 RMK AO2 PWINO
K4M9 130935Z AUTO 02004KT 10SM BKN095 01/01 A3006 RMK AO2 PWINO
K4M9 130915Z AUTO 02004KT 10SM CLR 01/00 A3006 RMK AO2 PWINO
K4M9 130855Z AUTO 33003KT 10SM CLR 01/00 A3007 RMK AO2 PWINO
K4M9 130835Z AUTO 00000KT 10SM BKN095 01/00 A3007 RMK AO2 PWINO
K4M9 130815Z AUTO 00000KT 10SM OVC095 01/00 A3007 RMK AO2 PWINO
K4M9 130755Z AUTO 00000KT 10SM FEW021 BKN100 01/00 A3008 RMK AO2 PWINO
K4M9 130735Z AUTO 00000KT 10SM FEW016 FEW021 BKN100 02/00 A3009 RMK AO2 PWINO
K4M9 130715Z AUTO 00000KT 10SM FEW021 BKN100 02/01 A3009 RMK AO2 PWINO
K4M9 130655Z AUTO 00000KT 10SM FEW020 01/M00 A3010 RMK AO2 PWINO
K4M9 130635Z AUTO 13003KT 10SM FEW020 02/00 A3011 RMK AO2 PWINO
K4M9 130615Z AUTO 13003KT 10SM FEW021 02/01 A3011 RMK AO2 PWINO
K4M9 130555Z AUTO 16003KT 10SM FEW021 01/00 A3012 RMK AO2 PWINO
K4M9 130535Z AUTO 15004KT 10SM CLR 02/00 A3012 RMK AO2 PWINO
K4M9 130515Z AUTO 14004KT 10SM FEW017 01/M01 A3012 RMK AO2 PWINO
K4M9 130455Z AUTO 14004KT 10SM FEW018 02/M01 A3012 RMK AO2 PWINO
K4M9 130435Z AUTO 13004KT 10SM SCT019 03/M00 A3013 RMK AO2 PWINO
K4M9 130415Z AUTO 14004KT 10SM SCT019 03/M00 A3014 RMK AO2 PWINO
K4M9 130355Z AUTO 14004KT 10SM SCT018 03/00 A3014 RMK AO2 PWINO
K4M9 130335Z AUTO 12003KT 10SM SCT019 03/00 A3014 RMK AO2 PWINO
K4M9 130315Z AUTO 00000KT 10SM FEW020 03/M00 A3014 RMK AO2 PWINO
K4M9 130255Z AUTO 18003KT 10SM FEW019 04/M01 A3015 RMK AO2 PWINO
K4M9 130235Z AUTO 20004KT 10SM FEW018 03/00 A3015 RMK AO2 PWINO
K4M9 130215Z AUTO 19006KT 10SM FEW018 04/00 A3016 RMK AO2 PWINO
K4M9 130155Z AUTO 16006KT 10SM FEW018 04/01 A3016 RMK AO2 PWINO